createdAt,value
2023-12-05T00:02:19.516Z,25.40
2023-12-05T00:04:47.949Z,22.40
2023-12-05T00:07:16.432Z,18.60
2023-12-05T00:09:44.648Z,20.50
2023-12-05T00:12:13.318Z,23.30
2023-12-05T00:14:41.536Z,23.50
2023-12-05T00:17:09.984Z,20.10
2023-12-05T00:19:38.239Z,24.20
2023-12-05T00:22:06.601Z,23.30
2023-12-05T00:24:34.759Z,24.80
2023-12-05T00:27:02.928Z,26.70
2023-12-05T00:29:31.073Z,25.30
2023-12-05T00:31:59.203Z,27.50
2023-12-05T00:34:27.822Z,27.20
2023-12-05T00:36:56.124Z,24.00
2023-12-05T00:39:24.363Z,25.90
2023-12-05T00:41:52.850Z,27.10
2023-12-05T00:44:21.067Z,24.80
2023-12-05T00:46:49.718Z,24.20
2023-12-05T00:49:17.944Z,23.50
2023-12-05T00:51:46.128Z,21.10
2023-12-05T00:54:15.532Z,27.20
2023-12-05T00:56:43.907Z,24.20
2023-12-05T00:59:12.193Z,23.80
2023-12-05T01:01:40.350Z,22.60
2023-12-05T01:04:08.554Z,22.70
2023-12-05T01:06:36.983Z,22.00
2023-12-05T01:09:07.782Z,21.20
2023-12-05T01:11:36.020Z,21.80
2023-12-05T01:14:04.720Z,21.00
2023-12-05T01:16:32.955Z,19.90
2023-12-05T01:19:01.543Z,22.00
2023-12-05T01:21:29.953Z,20.90
2023-12-05T01:23:58.133Z,23.40
2023-12-05T01:26:26.363Z,23.50
2023-12-05T01:28:56.274Z,22.70
2023-12-05T01:31:25.193Z,20.80
2023-12-05T01:33:53.405Z,18.90
2023-12-05T01:36:21.560Z,20.80
2023-12-05T01:38:49.825Z,18.40
2023-12-05T01:41:18.015Z,18.00
2023-12-05T01:43:46.128Z,19.60
2023-12-05T01:46:14.988Z,18.00
2023-12-05T01:48:43.695Z,17.90
2023-12-05T01:51:12.444Z,20.00
2023-12-05T01:53:42.306Z,20.50
2023-12-05T01:56:12.581Z,19.80
2023-12-05T01:58:41.273Z,20.50
2023-12-05T02:01:11.656Z,18.80
2023-12-05T02:03:41.156Z,18.00
2023-12-05T02:06:09.857Z,19.20
2023-12-05T02:08:39.274Z,20.20
2023-12-05T02:11:08.064Z,17.30
2023-12-05T02:13:36.227Z,19.90
2023-12-05T02:16:22.736Z,27.30
2023-12-05T02:19:17.046Z,27.60
2023-12-05T02:21:50.622Z,19.50
2023-12-05T02:24:34.530Z,19.10
2023-12-05T02:27:43.276Z,21.20
2023-12-05T02:30:13.077Z,24.40
2023-12-05T02:32:41.370Z,24.00
2023-12-05T02:35:12.027Z,24.40
2023-12-05T02:37:49.364Z,21.60
2023-12-05T02:40:28.750Z,17.60
2023-12-05T02:42:59.202Z,20.30
2023-12-05T02:45:32.253Z,20.00
2023-12-05T02:48:02.592Z,21.90
2023-12-05T02:50:31.105Z,20.30
2023-12-05T02:52:59.297Z,22.90
2023-12-05T02:55:27.425Z,20.50
2023-12-05T02:57:55.599Z,20.40
2023-12-05T03:00:23.809Z,19.30
2023-12-05T03:02:52.074Z,20.70
2023-12-05T03:05:20.577Z,19.80
2023-12-05T03:07:48.664Z,19.70
2023-12-05T03:10:16.833Z,23.60
2023-12-05T03:12:45.070Z,21.20
2023-12-05T03:15:13.426Z,23.70
2023-12-05T03:17:41.592Z,19.60
2023-12-05T03:20:10.213Z,21.10
2023-12-05T03:22:38.917Z,18.40
2023-12-05T03:25:07.822Z,21.50
2023-12-05T03:27:36.897Z,23.90
2023-12-05T03:30:06.157Z,20.20
2023-12-05T03:32:34.640Z,18.70
2023-12-05T03:35:02.877Z,20.10
2023-12-05T03:37:31.038Z,20.10
2023-12-05T03:39:59.192Z,18.00
2023-12-05T03:42:27.389Z,17.10
2023-12-05T03:44:55.572Z,19.40
2023-12-05T03:47:23.880Z,18.50
2023-12-05T03:49:52.044Z,18.60
2023-12-05T03:52:20.191Z,19.40
2023-12-05T03:54:48.372Z,18.40
2023-12-05T03:57:16.633Z,17.60
2023-12-05T03:59:46.697Z,19.40
2023-12-05T04:02:14.934Z,20.40
2023-12-05T04:04:43.281Z,18.90
2023-12-05T04:07:11.778Z,18.20
2023-12-05T04:09:39.925Z,20.00
2023-12-05T04:12:08.211Z,18.20
2023-12-05T04:14:36.828Z,18.90
2023-12-05T04:17:04.953Z,17.80
2023-12-05T04:19:33.301Z,19.20
2023-12-05T04:22:01.624Z,17.40
2023-12-05T04:24:29.775Z,19.40
2023-12-05T04:26:58.118Z,17.70
2023-12-05T04:29:26.284Z,19.90
2023-12-05T04:31:54.448Z,21.50
2023-12-05T04:34:23.054Z,18.00
2023-12-05T04:36:52.080Z,19.90
2023-12-05T04:39:20.510Z,18.90
2023-12-05T04:41:48.768Z,20.60
2023-12-05T04:44:16.922Z,23.80
2023-12-05T04:46:45.123Z,24.20
2023-12-05T04:49:13.395Z,22.90
2023-12-05T04:51:42.150Z,23.10
2023-12-05T04:54:10.433Z,23.40
2023-12-05T04:56:38.587Z,25.30
2023-12-05T04:59:06.894Z,23.00
2023-12-05T05:01:35.138Z,21.50
2023-12-05T05:04:04.729Z,24.50
2023-12-05T05:06:33.387Z,22.80
2023-12-05T05:09:01.920Z,25.20
2023-12-05T05:11:30.053Z,23.60
2023-12-05T05:13:59.297Z,24.10
2023-12-05T05:16:28.565Z,25.60
2023-12-05T05:18:56.865Z,27.00
2023-12-05T05:21:25.236Z,27.30
2023-12-05T05:23:53.623Z,30.30
2023-12-05T05:26:22.061Z,28.50
2023-12-05T05:28:50.286Z,30.50
2023-12-05T05:31:18.459Z,31.70
2023-12-05T05:33:46.666Z,25.40
2023-12-05T05:36:16.596Z,25.50
2023-12-05T05:38:45.089Z,23.60
2023-12-05T05:41:13.163Z,23.50
2023-12-05T05:43:41.615Z,23.10
2023-12-05T05:46:09.793Z,22.80
2023-12-05T05:48:37.985Z,22.60
2023-12-05T05:51:06.715Z,21.10
2023-12-05T05:53:34.882Z,23.10
2023-12-05T05:56:03.101Z,23.30
2023-12-05T05:58:31.394Z,23.40
2023-12-05T06:00:59.721Z,22.80
2023-12-05T06:03:29.795Z,24.80
2023-12-05T06:06:00.604Z,24.60
2023-12-05T06:08:29.106Z,30.60
2023-12-05T06:10:57.274Z,28.30
2023-12-05T06:13:26.445Z,25.20
2023-12-05T06:15:55.010Z,26.40
2023-12-05T06:18:23.593Z,28.30
2023-12-05T06:20:53.159Z,29.30
2023-12-05T06:23:21.299Z,37.60
2023-12-05T06:25:49.445Z,32.70
2023-12-05T06:28:17.637Z,38.50
2023-12-05T06:30:45.834Z,35.00
2023-12-05T06:33:14.119Z,38.20
2023-12-05T06:35:42.602Z,34.30
2023-12-05T06:38:10.828Z,30.40
2023-12-05T06:40:39.007Z,30.10
2023-12-05T06:43:08.365Z,31.80
2023-12-05T06:45:36.774Z,38.90
2023-12-05T06:48:05.916Z,31.30
2023-12-05T06:50:34.419Z,29.40
2023-12-05T06:53:02.942Z,30.80
2023-12-05T06:55:31.503Z,46.30
2023-12-05T06:57:59.782Z,40.60
2023-12-05T07:00:27.953Z,34.60
2023-12-05T07:02:56.476Z,33.70
2023-12-05T07:05:25.012Z,30.70
2023-12-05T07:07:53.447Z,28.70
2023-12-05T07:10:21.613Z,29.30
2023-12-05T07:12:49.750Z,35.30
2023-12-05T07:15:18.107Z,29.10
2023-12-05T07:17:46.470Z,27.70
2023-12-05T07:20:15.367Z,29.20
2023-12-05T07:22:44.391Z,74.90
2023-12-05T07:25:12.600Z,32.40
2023-12-05T07:27:41.096Z,30.20
2023-12-05T07:30:09.636Z,33.40
2023-12-05T07:32:37.921Z,35.70
2023-12-05T07:35:06.659Z,41.00
2023-12-05T07:37:35.122Z,33.40
2023-12-05T07:40:06.902Z,31.80
2023-12-05T07:42:35.178Z,160.40
2023-12-05T07:45:05.827Z,107.50
2023-12-05T07:47:34.174Z,37.50
2023-12-05T07:50:02.462Z,34.70
2023-12-05T07:52:30.813Z,33.20
2023-12-05T07:54:58.973Z,33.70
2023-12-05T07:57:27.977Z,27.30
2023-12-05T07:59:56.189Z,30.70
2023-12-05T08:02:24.355Z,27.40
2023-12-05T08:04:52.636Z,27.60
2023-12-05T08:07:20.952Z,29.90
2023-12-05T08:09:49.107Z,30.60
2023-12-05T08:12:17.480Z,34.20
2023-12-05T08:14:45.760Z,32.70
2023-12-05T08:17:14.909Z,32.40
2023-12-05T08:19:43.079Z,30.80
2023-12-05T08:22:11.250Z,29.40
2023-12-05T08:24:39.375Z,29.40
2023-12-05T08:27:08.987Z,31.10
2023-12-05T08:29:37.147Z,30.70
2023-12-05T08:32:06.512Z,32.70
2023-12-05T08:34:35.587Z,32.10
2023-12-05T08:37:04.076Z,34.90
2023-12-05T08:39:32.573Z,35.50
2023-12-05T08:42:00.953Z,36.30
2023-12-05T08:44:29.382Z,143.80
2023-12-05T08:46:57.575Z,45.50
2023-12-05T08:49:25.900Z,36.30
2023-12-05T08:51:54.497Z,32.90
2023-12-05T08:54:23.069Z,291.20
2023-12-05T08:56:52.936Z,60.90
2023-12-05T08:59:22.371Z,37.20
2023-12-05T09:01:51.623Z,38.30
2023-12-05T09:04:19.996Z,44.40
2023-12-05T09:06:48.417Z,40.70
2023-12-05T09:09:18.216Z,39.30
2023-12-05T09:11:46.663Z,33.60
2023-12-05T09:14:14.851Z,38.20
2023-12-05T09:16:42.934Z,32.80
2023-12-05T09:19:11.174Z,32.30
2023-12-05T09:21:39.578Z,29.50
2023-12-05T09:24:10.630Z,36.90
2023-12-05T09:26:39.121Z,34.90
2023-12-05T09:29:07.391Z,35.70
2023-12-05T09:31:35.601Z,42.70
2023-12-05T09:34:04.462Z,42.80
2023-12-05T09:36:32.719Z,37.80
2023-12-05T09:39:00.922Z,36.40
2023-12-05T09:41:29.283Z,45.30
2023-12-05T09:44:01.858Z,53.00
2023-12-05T09:46:37.624Z,37.70
2023-12-05T09:49:15.444Z,44.10
2023-12-05T09:51:44.171Z,133.20
2023-12-05T09:54:14.224Z,44.70
2023-12-05T09:56:42.922Z,40.40
2023-12-05T09:59:12.098Z,67.10
2023-12-05T10:01:43.631Z,44.60
2023-12-05T10:04:13.082Z,46.50
2023-12-05T10:06:41.511Z,46.80
2023-12-05T10:09:12.051Z,46.50
2023-12-05T10:11:42.121Z,37.70
2023-12-05T10:14:10.575Z,44.50
2023-12-05T10:16:39.117Z,45.60
2023-12-05T10:19:10.972Z,54.50
2023-12-05T10:21:39.629Z,44.60
2023-12-05T10:24:08.041Z,43.90
2023-12-05T10:26:45.330Z,52.70
2023-12-05T10:29:13.786Z,35.90
2023-12-05T10:31:42.636Z,36.70
2023-12-05T10:34:11.097Z,40.90
2023-12-05T10:36:39.324Z,32.50
2023-12-05T10:39:07.527Z,34.50
2023-12-05T10:41:36.373Z,32.70
2023-12-05T10:44:04.593Z,27.90
2023-12-05T10:46:36.710Z,26.60
2023-12-05T10:49:06.205Z,25.90
2023-12-05T10:51:34.661Z,27.00
2023-12-05T10:54:03.936Z,28.50
2023-12-05T10:56:32.103Z,25.40
2023-12-05T10:59:01.770Z,26.50
2023-12-05T11:01:30.349Z,36.20
2023-12-05T11:04:02.280Z,103.30
2023-12-05T11:06:31.574Z,48.20
2023-12-05T11:08:59.910Z,27.00
2023-12-05T11:11:29.539Z,27.80
2023-12-05T11:13:59.556Z,31.60
2023-12-05T11:16:36.348Z,41.30
2023-12-05T11:19:50.619Z,42.30
2023-12-05T11:22:47.120Z,57.20
2023-12-05T11:25:36.799Z,49.40
2023-12-05T11:28:32.403Z,45.80
2023-12-05T11:31:06.559Z,56.00
2023-12-05T11:33:47.103Z,65.60
2023-12-05T11:36:30.156Z,57.30
2023-12-05T11:39:00.193Z,223.00
2023-12-05T11:41:29.004Z,109.90
2023-12-05T11:44:12.652Z,73.00
2023-12-05T11:46:51.341Z,63.60
2023-12-05T11:49:54.547Z,66.30
2023-12-05T11:52:27.388Z,48.50
2023-12-05T11:54:56.299Z,40.10
2023-12-05T11:57:25.752Z,39.60
2023-12-05T11:59:55.661Z,53.00
2023-12-05T12:02:33.110Z,51.00
2023-12-05T12:05:09.918Z,46.70
2023-12-05T12:07:58.090Z,40.40
2023-12-05T12:10:27.895Z,37.40
2023-12-05T12:12:56.547Z,39.90
2023-12-05T12:15:25.157Z,35.00
2023-12-05T12:17:53.463Z,42.60
2023-12-05T12:20:21.850Z,47.70
2023-12-05T12:22:51.729Z,47.50
2023-12-05T12:25:20.677Z,40.60
2023-12-05T12:27:49.046Z,41.10
2023-12-05T12:30:20.505Z,52.60
2023-12-05T12:33:06.308Z,43.30
2023-12-05T12:35:36.114Z,36.60
2023-12-05T12:38:04.477Z,47.70
2023-12-05T12:40:36.186Z,47.60
2023-12-05T12:43:04.671Z,52.40
2023-12-05T12:45:33.767Z,66.20
2023-12-05T12:48:06.175Z,49.50
2023-12-05T12:50:34.887Z,41.80
2023-12-05T12:53:03.198Z,48.30
2023-12-05T12:55:31.601Z,61.10
2023-12-05T12:58:04.156Z,57.50
2023-12-05T13:00:38.037Z,62.90
2023-12-05T13:03:08.580Z,77.90
2023-12-05T13:05:41.118Z,69.90
2023-12-05T13:08:09.786Z,66.30
2023-12-05T13:10:42.210Z,82.20
2023-12-05T13:13:10.540Z,50.70
2023-12-05T13:15:39.898Z,51.60
2023-12-05T13:18:08.987Z,47.50
2023-12-05T13:20:57.696Z,40.70
2023-12-05T13:23:26.369Z,51.20
2023-12-05T13:25:56.478Z,48.20
2023-12-05T13:28:24.722Z,93.90
2023-12-05T13:30:53.258Z,62.90
2023-12-05T13:33:21.486Z,47.60
2023-12-05T13:35:51.068Z,39.90
2023-12-05T13:38:20.553Z,51.10
2023-12-05T13:40:49.055Z,49.90
2023-12-05T13:43:18.399Z,48.80
2023-12-05T13:45:46.624Z,56.30
2023-12-05T13:48:15.150Z,53.50
2023-12-05T13:50:43.460Z,54.50
2023-12-05T13:53:17.195Z,50.80
2023-12-05T13:58:13.549Z,38.80
2023-12-05T14:00:41.947Z,34.90
2023-12-05T14:03:10.309Z,32.00
2023-12-05T14:05:38.752Z,34.80
2023-12-05T14:08:07.371Z,35.40
2023-12-05T14:10:41.803Z,43.40
2023-12-05T14:13:13.414Z,38.20
2023-12-05T14:15:42.873Z,39.60
2023-12-05T14:18:11.320Z,46.10
2023-12-05T14:20:39.469Z,39.00
2023-12-05T14:23:07.713Z,36.80
2023-12-05T14:25:35.928Z,40.90
2023-12-05T14:28:05.847Z,37.10
2023-12-05T14:30:34.639Z,42.00
2023-12-05T14:33:02.836Z,48.00
2023-12-05T14:35:31.181Z,108.20
2023-12-05T14:37:59.753Z,82.10
2023-12-05T14:40:27.990Z,90.80
2023-12-05T14:42:56.610Z,75.20
2023-12-05T14:45:29.539Z,76.70
2023-12-05T14:48:01.134Z,79.70
2023-12-05T14:50:33.999Z,76.60
2023-12-05T14:53:02.257Z,79.70
2023-12-05T14:55:31.074Z,74.00
2023-12-05T14:57:59.893Z,89.40
2023-12-05T15:00:31.784Z,71.30
2023-12-05T15:03:02.790Z,63.20
2023-12-05T15:05:33.300Z,62.70
2023-12-05T15:08:01.583Z,68.10
2023-12-05T15:10:30.801Z,65.40
2023-12-05T15:12:59.068Z,69.60
2023-12-05T15:15:27.865Z,61.40
2023-12-05T15:17:56.522Z,72.30
2023-12-05T15:20:26.467Z,61.50
2023-12-05T15:22:54.877Z,72.40
2023-12-05T15:25:25.009Z,80.40
2023-12-05T15:27:53.362Z,68.40
2023-12-05T15:30:22.108Z,79.10
2023-12-05T15:32:54.930Z,80.40
2023-12-05T15:35:24.018Z,63.80
2023-12-05T15:37:54.854Z,67.50
2023-12-05T15:40:23.797Z,68.70
2023-12-05T15:42:52.050Z,61.40
2023-12-05T15:45:20.671Z,59.40
2023-12-05T15:47:51.122Z,57.40
2023-12-05T15:50:20.017Z,45.50
2023-12-05T15:52:49.319Z,36.90
2023-12-05T15:55:17.588Z,38.80
2023-12-05T15:57:46.126Z,46.80
2023-12-05T16:00:14.702Z,54.20
2023-12-05T16:03:02.820Z,73.90
2023-12-05T16:05:31.816Z,91.90
2023-12-05T16:08:00.403Z,86.70
2023-12-05T16:10:30.151Z,80.50
2023-12-05T16:12:58.473Z,87.20
2023-12-05T16:15:26.944Z,117.30
2023-12-05T16:17:58.643Z,162.20
2023-12-05T16:20:27.013Z,153.20
2023-12-05T16:22:55.185Z,168.80
2023-12-05T16:25:23.586Z,203.90
2023-12-05T16:27:52.132Z,119.70
2023-12-05T16:30:20.476Z,107.40
2023-12-05T16:32:49.138Z,118.30
2023-12-05T16:35:17.400Z,133.30
2023-12-05T16:37:48.065Z,124.30
2023-12-05T16:40:16.599Z,127.90
2023-12-05T16:42:45.360Z,129.30
2023-12-05T16:45:14.985Z,143.30
2023-12-05T16:47:43.662Z,130.00
2023-12-05T16:50:14.238Z,132.70
2023-12-05T16:52:43.270Z,126.50
2023-12-05T16:55:11.498Z,103.00
2023-12-05T16:57:47.235Z,108.70
2023-12-05T17:00:16.409Z,101.40
2023-12-05T17:02:45.017Z,98.80
2023-12-05T17:05:14.224Z,97.30
2023-12-05T17:07:42.639Z,102.60
2023-12-05T17:10:13.700Z,106.00
2023-12-05T17:12:43.094Z,105.80
2023-12-05T17:15:11.444Z,102.50
2023-12-05T17:17:39.617Z,105.50
2023-12-05T17:20:09.839Z,99.20
2023-12-05T17:22:38.021Z,114.30
2023-12-05T17:25:07.109Z,109.80
2023-12-05T17:27:35.567Z,118.00
2023-12-05T17:30:07.472Z,111.10
2023-12-05T17:32:35.827Z,115.30
2023-12-05T17:35:04.927Z,131.10
2023-12-05T17:37:33.455Z,131.90
2023-12-05T17:40:04.138Z,147.50
2023-12-05T17:42:33.528Z,180.50
2023-12-05T17:45:01.764Z,174.10
2023-12-05T17:47:30.122Z,225.40
2023-12-05T17:49:58.462Z,215.50
2023-12-05T17:52:27.513Z,217.60
2023-12-05T17:54:55.846Z,225.70
2023-12-05T17:57:24.216Z,237.50
2023-12-05T17:59:52.422Z,226.40
2023-12-05T18:02:20.885Z,219.90
2023-12-05T18:04:49.905Z,184.90
2023-12-05T18:07:51.828Z,183.00
2023-12-05T18:10:07.198Z,149.50
2023-12-05T18:12:35.678Z,205.90
2023-12-05T18:15:05.727Z,187.80
2023-12-05T18:17:33.931Z,207.90
2023-12-05T18:20:02.716Z,185.60
2023-12-05T18:22:31.073Z,198.80
2023-12-05T18:25:01.293Z,178.70
2023-12-05T18:27:29.611Z,167.90
2023-12-05T18:29:58.055Z,154.30
2023-12-05T18:32:26.374Z,162.90
2023-12-05T18:34:55.718Z,160.70
2023-12-05T18:37:25.009Z,147.10
2023-12-05T18:39:54.131Z,150.80
2023-12-05T18:42:22.569Z,151.60
2023-12-05T18:44:50.888Z,167.00
2023-12-05T18:47:19.361Z,247.10
2023-12-05T18:49:48.153Z,224.70
2023-12-05T18:52:17.103Z,263.10
2023-12-05T18:54:45.599Z,233.40
2023-12-05T18:57:14.803Z,205.30
2023-12-05T18:59:43.998Z,221.80
2023-12-05T19:02:12.175Z,221.20
2023-12-05T19:04:40.714Z,235.30
2023-12-05T19:07:11.477Z,217.60
2023-12-05T19:09:40.364Z,225.60
2023-12-05T19:12:09.210Z,214.60
2023-12-05T19:14:37.413Z,241.90
2023-12-05T19:17:09.211Z,219.40
2023-12-05T19:19:37.464Z,247.00
2023-12-05T19:22:05.903Z,252.90
2023-12-05T19:24:34.135Z,254.60
2023-12-05T19:27:02.531Z,221.60
2023-12-05T19:29:30.848Z,183.20
2023-12-05T19:31:59.131Z,197.80
2023-12-05T19:34:35.491Z,222.80
2023-12-05T19:37:11.585Z,255.70
2023-12-05T19:39:43.516Z,285.60
2023-12-05T19:42:16.781Z,277.40
2023-12-05T19:44:47.846Z,235.70
2023-12-05T19:47:19.356Z,247.30
2023-12-05T19:49:47.989Z,276.70
2023-12-05T19:52:16.466Z,367.30
2023-12-05T19:54:45.218Z,291.70
2023-12-05T19:57:13.532Z,326.50
2023-12-05T19:59:45.979Z,333.80
2023-12-05T20:02:14.479Z,299.80
2023-12-05T20:04:43.458Z,273.60
2023-12-05T20:07:11.844Z,284.40
2023-12-05T20:09:41.248Z,280.40
2023-12-05T20:12:09.783Z,242.80
2023-12-05T20:14:38.081Z,231.90
2023-12-05T20:17:06.374Z,224.70
2023-12-05T20:19:35.014Z,227.90
2023-12-05T20:22:08.963Z,225.30
2023-12-05T20:24:37.243Z,237.40
2023-12-05T20:27:08.545Z,224.90
2023-12-05T20:29:37.337Z,230.30
2023-12-05T20:32:06.798Z,218.10
2023-12-05T20:34:35.039Z,206.20
2023-12-05T20:37:04.672Z,215.90
2023-12-05T20:39:36.478Z,218.20
2023-12-05T20:42:07.851Z,204.30
2023-12-05T20:44:36.706Z,206.30
2023-12-05T20:47:07.020Z,219.20
2023-12-05T20:49:35.385Z,227.20
2023-12-05T20:52:05.248Z,227.20
2023-12-05T20:54:33.452Z,217.10
2023-12-05T20:57:02.553Z,230.00
2023-12-05T20:59:31.079Z,227.00
2023-12-05T21:01:59.482Z,214.70
2023-12-05T21:04:27.757Z,232.10
2023-12-05T21:06:56.102Z,230.10
2023-12-05T21:09:24.252Z,229.20
2023-12-05T21:11:52.371Z,242.20
2023-12-05T21:14:20.648Z,237.50
2023-12-05T21:16:48.909Z,218.80
2023-12-05T21:19:17.146Z,236.20
2023-12-05T21:21:45.346Z,192.50
2023-12-05T21:24:13.701Z,220.30
2023-12-05T21:26:41.880Z,189.90
2023-12-05T21:29:10.153Z,209.10
2023-12-05T21:31:38.347Z,214.60
2023-12-05T21:34:06.548Z,178.40
2023-12-05T21:36:34.808Z,190.30
2023-12-05T21:39:03.784Z,171.70
2023-12-05T21:41:31.954Z,168.50
2023-12-05T21:44:00.187Z,155.90
2023-12-05T21:46:29.807Z,171.60
2023-12-05T21:49:02.913Z,171.00
2023-12-05T21:51:33.568Z,165.60
2023-12-05T21:54:03.356Z,192.90
2023-12-05T21:56:32.140Z,181.90
2023-12-05T21:59:00.622Z,184.20
2023-12-05T22:01:31.260Z,176.80
2023-12-05T22:03:59.796Z,189.70
2023-12-05T22:06:28.781Z,174.10
2023-12-05T22:08:57.003Z,171.70
2023-12-05T22:11:25.600Z,174.90
2023-12-05T22:13:53.836Z,170.40
2023-12-05T22:16:22.027Z,167.40
2023-12-05T22:18:50.680Z,167.80
2023-12-05T22:21:20.999Z,165.20
2023-12-05T22:23:49.198Z,167.40
2023-12-05T22:26:19.814Z,160.60
2023-12-05T22:28:47.929Z,151.00
2023-12-05T22:31:23.605Z,155.40
2023-12-05T22:33:52.392Z,153.40
2023-12-05T22:36:22.778Z,165.30
2023-12-05T22:38:52.435Z,162.60
2023-12-05T22:41:21.194Z,171.90
2023-12-05T22:43:50.419Z,192.70
2023-12-05T22:46:18.984Z,187.50
2023-12-05T22:48:47.392Z,191.90
2023-12-05T22:51:16.309Z,202.90
2023-12-05T22:53:44.606Z,222.60
2023-12-05T22:56:12.884Z,226.20
2023-12-05T22:58:41.216Z,225.60
2023-12-05T23:01:09.436Z,222.60
2023-12-05T23:03:37.701Z,223.70
2023-12-05T23:06:06.152Z,213.60
2023-12-05T23:08:34.306Z,188.40
2023-12-05T23:11:02.549Z,165.30
2023-12-05T23:13:30.863Z,174.10
2023-12-05T23:16:00.384Z,174.20
2023-12-05T23:18:29.388Z,243.70
2023-12-05T23:20:58.158Z,221.30
2023-12-05T23:23:26.446Z,185.60
2023-12-05T23:25:54.646Z,153.30
2023-12-05T23:28:25.834Z,163.80
2023-12-05T23:30:54.633Z,193.60
2023-12-05T23:33:23.183Z,218.40
2023-12-05T23:35:51.536Z,240.40
2023-12-05T23:38:19.671Z,204.20
2023-12-05T23:40:48.325Z,186.40
2023-12-05T23:43:16.449Z,177.60
2023-12-05T23:45:44.772Z,163.50
2023-12-05T23:48:13.560Z,171.10
2023-12-05T23:50:41.833Z,148.10
2023-12-05T23:53:10.832Z,140.30
2023-12-05T23:55:39.033Z,126.50
2023-12-05T23:58:07.211Z,111.90
